createdAt,value
2018-04-25T00:01:17.443Z,2.07
2018-04-25T00:03:46.861Z,2.67
2018-04-25T00:06:15.501Z,2.10
2018-04-25T00:08:44.205Z,2.95
2018-04-25T00:11:12.833Z,2.50
2018-04-25T00:13:40.952Z,2.93
2018-04-25T00:16:08.738Z,2.60
2018-04-25T00:18:37.953Z,2.50
2018-04-25T00:21:06.053Z,2.83
2018-04-25T00:23:35.531Z,2.62
2018-04-25T00:26:04.217Z,2.27
2018-04-25T00:28:33.091Z,2.80
2018-04-25T00:31:01.789Z,2.45
2018-04-25T00:33:30.229Z,2.20
2018-04-25T00:35:58.682Z,2.27
2018-04-25T00:38:27.378Z,2.58
2018-04-25T00:40:55.346Z,2.60
2018-04-25T00:43:23.383Z,2.12
2018-04-25T00:45:51.170Z,2.27
2018-04-25T00:48:19.109Z,2.60
2018-04-25T00:50:47.041Z,2.70
2018-04-25T00:53:15.097Z,2.60
2018-04-25T00:55:44.378Z,3.17
2018-04-25T00:58:12.201Z,2.70
2018-04-25T01:00:40.568Z,2.58
2018-04-25T01:03:09.645Z,2.17
2018-04-25T01:05:37.790Z,2.63
2018-04-25T01:08:06.550Z,1.97
2018-04-25T01:10:34.988Z,2.33
2018-04-25T01:13:03.517Z,2.50
2018-04-25T01:15:31.643Z,2.43
2018-04-25T01:17:59.654Z,2.20
2018-04-25T01:20:29.097Z,2.33
2018-04-25T01:22:57.729Z,2.50
2018-04-25T01:25:32.349Z,2.30
2018-04-25T01:28:04.933Z,2.67
2018-04-25T01:33:41.564Z,2.27
2018-04-25T01:36:10.510Z,2.30
2018-04-25T01:38:40.760Z,2.97
2018-04-25T01:41:13.454Z,2.50
2018-04-25T01:43:43.578Z,2.80
2018-04-25T01:49:21.852Z,2.20
2018-04-25T01:52:01.560Z,3.17
2018-04-25T01:54:41.437Z,2.83
2018-04-25T01:57:21.088Z,1.90
2018-04-25T02:00:00.807Z,2.73
2018-04-25T02:02:28.245Z,1.90
2018-04-25T02:04:56.853Z,2.33
2018-04-25T02:07:26.669Z,3.00
2018-04-25T02:09:55.109Z,2.70
2018-04-25T02:12:23.747Z,2.33
2018-04-25T02:14:52.185Z,2.73
2018-04-25T02:17:20.750Z,2.67
2018-04-25T02:19:49.211Z,2.00
2018-04-25T02:22:17.636Z,2.33
2018-04-25T02:24:46.377Z,2.70
2018-04-25T02:27:15.052Z,3.17
2018-04-25T02:29:43.496Z,2.80
2018-04-25T02:32:12.048Z,2.53
2018-04-25T02:34:40.513Z,3.10
2018-04-25T02:37:08.956Z,2.57
2018-04-25T02:39:37.408Z,2.93
2018-04-25T02:42:06.608Z,2.23
2018-04-25T02:44:35.092Z,2.70
2018-04-25T02:47:03.571Z,2.50
2018-04-25T02:49:32.121Z,2.70
2018-04-25T02:52:00.624Z,2.30
2018-04-25T02:54:30.169Z,2.77
2018-04-25T02:56:58.743Z,3.23
2018-04-25T02:59:27.482Z,3.20
2018-04-25T03:01:55.932Z,2.17
2018-04-25T03:04:24.373Z,3.53
2018-04-25T03:06:53.085Z,3.15
2018-04-25T03:09:21.511Z,2.20
2018-04-25T03:11:49.957Z,2.90
2018-04-25T03:14:18.405Z,2.03
2018-04-25T03:16:46.653Z,2.13
2018-04-25T03:19:15.534Z,2.97
2018-04-25T03:21:44.070Z,3.03
2018-04-25T03:24:12.516Z,2.67
2018-04-25T03:26:41.138Z,2.70
2018-04-25T03:29:09.751Z,3.10
2018-04-25T03:31:38.661Z,2.78
2018-04-25T03:34:07.870Z,2.50
2018-04-25T03:36:36.499Z,2.73
2018-04-25T03:39:04.038Z,3.00
2018-04-25T03:41:32.721Z,2.93
2018-04-25T03:44:01.192Z,2.90
2018-04-25T03:46:29.730Z,3.17
2018-04-25T03:48:58.189Z,3.10
2018-04-25T03:51:26.753Z,3.23
2018-04-25T03:53:56.101Z,2.73
2018-04-25T03:56:24.696Z,3.30
2018-04-25T03:58:53.440Z,3.00
2018-04-25T04:01:22.140Z,3.15
2018-04-25T04:03:50.594Z,2.90
2018-04-25T04:06:19.023Z,3.23
2018-04-25T04:08:48.556Z,2.80
2018-04-25T04:11:16.772Z,2.60
2018-04-25T04:13:45.307Z,3.43
2018-04-25T04:16:13.762Z,2.93
2018-04-25T04:18:42.472Z,3.10
2018-04-25T04:21:11.462Z,3.15
2018-04-25T04:23:40.133Z,3.30
2018-04-25T04:26:08.583Z,3.73
2018-04-25T04:28:37.307Z,3.80
2018-04-25T04:31:06.194Z,3.73
2018-04-25T04:33:34.654Z,3.20
2018-04-25T04:36:03.670Z,3.10
2018-04-25T04:38:32.117Z,3.57
2018-04-25T04:41:01.334Z,4.33
2018-04-25T04:43:29.796Z,3.50
2018-04-25T04:45:58.519Z,3.00
2018-04-25T04:48:28.007Z,3.80
2018-04-25T04:50:56.444Z,3.93
2018-04-25T04:53:25.907Z,3.77
2018-04-25T04:55:54.034Z,3.83
2018-04-25T04:58:22.730Z,3.05
2018-04-25T05:00:51.962Z,3.40
2018-04-25T05:03:20.415Z,3.43
2018-04-25T05:05:48.878Z,4.50
2018-04-25T05:08:18.088Z,3.80
2018-04-25T05:10:47.928Z,3.57
2018-04-25T05:13:16.370Z,3.63
2018-04-25T05:15:45.621Z,3.67
2018-04-25T05:18:14.105Z,4.40
2018-04-25T05:20:42.581Z,3.90
2018-04-25T05:23:11.036Z,3.60
2018-04-25T05:25:39.495Z,4.00
2018-04-25T05:28:08.714Z,4.30
2018-04-25T05:30:37.147Z,4.20
2018-04-25T05:33:06.783Z,4.17
2018-04-25T05:35:35.212Z,3.57
2018-04-25T05:38:04.669Z,4.43
2018-04-25T05:40:33.218Z,4.43
2018-04-25T05:43:02.533Z,4.27
2018-04-25T05:45:31.506Z,4.00
2018-04-25T05:47:59.995Z,3.67
2018-04-25T05:50:28.434Z,4.30
2018-04-25T05:52:56.877Z,5.10
2018-04-25T05:55:25.357Z,3.97
2018-04-25T05:57:53.811Z,4.30
2018-04-25T06:00:22.692Z,4.10
2018-04-25T06:02:51.133Z,3.77
2018-04-25T06:05:19.709Z,3.77
2018-04-25T06:07:48.229Z,3.97
2018-04-25T06:10:16.701Z,3.73
2018-04-25T06:12:45.163Z,4.63
2018-04-25T06:15:13.953Z,4.45
2018-04-25T06:17:42.650Z,4.20
2018-04-25T06:20:11.133Z,3.80
2018-04-25T06:22:41.200Z,3.67
2018-04-25T06:25:09.932Z,4.13
2018-04-25T06:27:38.636Z,3.97
2018-04-25T06:30:07.210Z,4.30
2018-04-25T06:32:35.670Z,4.67
2018-04-25T06:35:04.237Z,4.10
2018-04-25T06:37:32.684Z,4.17
2018-04-25T06:40:01.405Z,3.62
2018-04-25T06:42:30.078Z,3.60
2018-04-25T06:44:58.582Z,3.00
2018-04-25T06:47:27.163Z,3.53
2018-04-25T06:49:55.617Z,4.93
2018-04-25T06:52:24.061Z,3.63
2018-04-25T06:54:53.281Z,3.40
2018-04-25T06:57:21.972Z,3.10
2018-04-25T06:59:50.443Z,3.80
2018-04-25T07:02:19.648Z,3.30
2018-04-25T07:04:48.117Z,3.40
2018-04-25T07:07:16.816Z,3.12
2018-04-25T07:09:45.875Z,2.80
2018-04-25T07:12:14.534Z,4.60
2018-04-25T07:14:43.235Z,2.90
2018-04-25T07:17:11.952Z,2.90
2018-04-25T07:19:40.681Z,2.87
2018-04-25T07:22:09.205Z,3.40
2018-04-25T07:24:37.704Z,2.60
2018-04-25T07:27:06.409Z,2.65
2018-04-25T07:29:35.141Z,3.27
2018-04-25T07:32:03.753Z,3.30
2018-04-25T07:34:32.449Z,3.12
2018-04-25T07:37:00.929Z,3.23
2018-04-25T07:39:29.389Z,2.90
2018-04-25T07:41:58.612Z,3.23
2018-04-25T07:44:27.061Z,2.63
2018-04-25T07:46:55.800Z,2.63
2018-04-25T07:49:24.373Z,3.20
2018-04-25T07:51:53.037Z,3.40
2018-04-25T07:54:21.748Z,3.90
2018-04-25T07:56:50.492Z,3.60
2018-04-25T07:59:19.212Z,3.40
2018-04-25T08:01:47.670Z,3.13
2018-04-25T08:04:16.104Z,3.37
2018-04-25T08:06:44.830Z,4.03
2018-04-25T08:09:13.490Z,3.73
2018-04-25T08:11:41.931Z,3.20
2018-04-25T08:14:22.422Z,3.40
2018-04-25T08:17:02.101Z,3.90
2018-04-25T08:19:41.936Z,3.80
2018-04-25T08:22:10.976Z,3.03
2018-04-25T08:24:40.448Z,3.72
2018-04-25T08:27:09.144Z,2.93
2018-04-25T08:29:37.868Z,3.55
2018-04-25T08:32:06.688Z,3.30
2018-04-25T08:34:36.217Z,3.63
2018-04-25T08:37:05.261Z,3.87
2018-04-25T08:39:34.659Z,3.80
2018-04-25T08:42:03.095Z,3.37
2018-04-25T08:44:31.543Z,3.10
2018-04-25T08:47:00.769Z,3.60
2018-04-25T08:49:29.259Z,3.67
2018-04-25T08:51:57.909Z,3.50
2018-04-25T08:54:26.723Z,3.28
2018-04-25T08:56:55.177Z,4.10
2018-04-25T08:59:24.411Z,5.30
2018-04-25T09:01:53.462Z,3.47
2018-04-25T09:04:22.131Z,3.17
2018-04-25T09:06:50.628Z,3.63
2018-04-25T09:09:19.866Z,2.93
2018-04-25T09:11:49.152Z,3.37
2018-04-25T09:14:18.486Z,3.63
2018-04-25T09:16:47.124Z,3.40
2018-04-25T09:19:15.558Z,3.23
2018-04-25T09:21:44.291Z,3.72
2018-04-25T09:24:13.926Z,3.10
2018-04-25T09:26:42.974Z,3.25
2018-04-25T09:29:11.717Z,3.12
2018-04-25T09:31:40.172Z,3.40
2018-04-25T09:34:09.417Z,2.63
2018-04-25T09:36:38.078Z,2.83
2018-04-25T09:39:06.605Z,2.70
2018-04-25T09:41:36.224Z,3.00
2018-04-25T09:44:04.694Z,3.40
2018-04-25T09:46:33.706Z,3.93
2018-04-25T09:49:02.444Z,2.92
2018-04-25T09:51:30.884Z,2.40
2018-04-25T09:53:59.366Z,2.93
2018-04-25T09:56:27.804Z,4.00
2018-04-25T09:58:56.632Z,3.30
2018-04-25T10:01:31.094Z,2.90
2018-04-25T10:03:59.651Z,2.57
2018-04-25T10:06:28.217Z,3.15
2018-04-25T10:08:56.683Z,2.67
2018-04-25T10:11:26.273Z,3.10
2018-04-25T10:13:54.817Z,2.97
2018-04-25T10:16:23.545Z,2.10
2018-04-25T10:18:52.773Z,3.00
2018-04-25T10:21:22.253Z,3.75
2018-04-25T10:23:51.199Z,3.20
2018-04-25T10:26:20.721Z,3.23
2018-04-25T10:28:49.319Z,3.20
2018-04-25T10:31:18.060Z,2.80
2018-04-25T10:33:46.165Z,2.70
2018-04-25T10:36:14.867Z,2.58
2018-04-25T10:38:44.096Z,2.90
2018-04-25T10:41:13.334Z,2.15
2018-04-25T10:43:41.789Z,3.07
2018-04-25T10:46:11.069Z,2.67
2018-04-25T10:48:39.541Z,3.00
2018-04-25T10:51:08.405Z,2.87
2018-04-25T10:53:37.172Z,2.70
2018-04-25T10:56:05.877Z,4.70
2018-04-25T10:58:34.356Z,2.83
2018-04-25T11:01:03.585Z,3.50
2018-04-25T11:03:32.032Z,2.97
2018-04-25T11:06:00.523Z,3.27
2018-04-25T11:08:29.255Z,3.30
2018-04-25T11:10:57.767Z,3.40
2018-04-25T11:13:26.504Z,3.03
2018-04-25T11:15:56.228Z,3.10
2018-04-25T11:18:25.268Z,5.35
2018-04-25T11:20:54.488Z,2.77
2018-04-25T11:23:23.983Z,3.12
2018-04-25T11:25:52.472Z,2.60
2018-04-25T11:28:22.054Z,3.77
2018-04-25T11:30:52.103Z,2.70
2018-04-25T11:33:20.581Z,3.47
2018-04-25T11:35:50.173Z,2.78
2018-04-25T11:38:18.626Z,2.80
2018-04-25T11:40:47.553Z,3.90
2018-04-25T11:43:16.259Z,4.00
2018-04-25T11:45:44.989Z,2.90
2018-04-25T11:48:14.255Z,3.00
2018-04-25T11:50:42.813Z,2.87
2018-04-25T11:53:11.313Z,3.00
2018-04-25T11:55:39.933Z,2.57
2018-04-25T11:58:08.652Z,2.57
2018-04-25T12:00:39.038Z,2.80
2018-04-25T12:03:07.869Z,3.65
2018-04-25T12:05:36.422Z,2.87
2018-04-25T12:08:05.991Z,2.53
2018-04-25T12:10:36.183Z,2.65
2018-04-25T12:13:04.753Z,2.87
2018-04-25T12:15:33.383Z,3.20
2018-04-25T12:18:01.923Z,3.80
2018-04-25T12:20:30.737Z,2.50
2018-04-25T12:23:02.407Z,3.17
2018-04-25T12:25:30.867Z,2.80
2018-04-25T12:27:59.633Z,2.60
2018-04-25T12:30:29.215Z,3.00
2018-04-25T12:32:58.639Z,2.47
2018-04-25T12:35:27.323Z,3.60
2018-04-25T12:37:55.864Z,3.33
2018-04-25T12:40:25.153Z,3.10
2018-04-25T12:42:53.667Z,3.40
2018-04-25T12:45:22.442Z,2.75
2018-04-25T12:47:51.174Z,3.17
2018-04-25T12:50:19.755Z,2.40
2018-04-25T12:52:48.501Z,2.70
2018-04-25T12:55:17.159Z,3.50
2018-04-25T12:57:46.451Z,2.80
2018-04-25T13:05:57.110Z,3.40
2018-04-25T13:08:29.586Z,3.95
2018-04-25T13:10:58.936Z,3.17
2018-04-25T13:13:28.418Z,2.90
2018-04-25T13:15:59.029Z,3.30
2018-04-25T13:18:32.437Z,3.43
2018-04-25T13:21:01.307Z,3.23
2018-04-25T13:23:29.791Z,3.10
2018-04-25T13:25:58.532Z,2.30
2018-04-25T13:28:28.098Z,4.53
2018-04-25T13:30:56.531Z,2.60
2018-04-25T13:33:24.969Z,4.10
2018-04-25T13:35:53.637Z,3.90
2018-04-25T13:38:22.555Z,2.15
2018-04-25T13:40:51.087Z,2.90
2018-04-25T13:43:19.816Z,3.50
2018-04-25T13:45:49.060Z,3.60
2018-04-25T13:48:17.505Z,2.90
2018-04-25T13:50:46.017Z,4.22
2018-04-25T13:53:14.268Z,3.07
2018-04-25T13:55:42.768Z,3.50
2018-04-25T13:58:11.254Z,3.33
2018-04-25T14:00:39.744Z,2.80
2018-04-25T14:03:08.178Z,3.57
2018-04-25T14:05:36.720Z,3.07
2018-04-25T14:08:06.598Z,3.20
2018-04-25T14:10:35.250Z,3.17
2018-04-25T14:13:04.542Z,3.63
2018-04-25T14:15:33.149Z,3.10
2018-04-25T14:18:01.869Z,2.53
2018-04-25T14:20:30.318Z,3.63
2018-04-25T14:22:59.543Z,3.53
2018-04-25T14:25:27.972Z,4.10
2018-04-25T14:27:57.130Z,2.37
2018-04-25T14:30:25.759Z,2.60
2018-04-25T14:32:55.717Z,3.50
2018-04-25T14:35:24.176Z,3.00
2018-04-25T14:37:53.401Z,3.57
2018-04-25T14:40:22.225Z,3.67
2018-04-25T14:42:50.876Z,2.90
2018-04-25T14:45:19.598Z,3.20
2018-04-25T14:47:48.312Z,3.20
2018-04-25T14:50:17.023Z,2.78
2018-04-25T14:52:46.544Z,3.15
2018-04-25T14:55:15.604Z,3.43
2018-04-25T14:57:44.338Z,2.87
2018-04-25T15:00:12.774Z,3.10
2018-04-25T15:02:46.094Z,3.50
2018-04-25T15:05:15.357Z,3.30
2018-04-25T15:07:43.797Z,3.43
2018-04-25T15:10:12.524Z,3.27
2018-04-25T15:12:41.832Z,2.87
2018-04-25T15:15:10.277Z,3.03
2018-04-25T15:17:38.824Z,3.23
2018-04-25T15:20:07.519Z,3.27
2018-04-25T15:22:36.169Z,3.57
2018-04-25T15:25:04.288Z,4.47
2018-04-25T15:27:32.804Z,2.63
2018-04-25T15:30:01.025Z,2.80
2018-04-25T15:32:29.579Z,3.03
2018-04-25T15:34:59.073Z,3.13
2018-04-25T15:37:27.572Z,3.63
2018-04-25T15:39:56.727Z,3.42
2018-04-25T15:42:25.344Z,3.43
2018-04-25T15:44:53.860Z,4.10
2018-04-25T15:47:22.589Z,3.60
2018-04-25T15:49:51.197Z,2.90
2018-04-25T15:52:19.642Z,4.00
2018-04-25T15:54:48.845Z,3.23
2018-04-25T15:57:17.632Z,2.75
2018-04-25T15:59:46.841Z,2.60
2018-04-25T16:02:15.428Z,3.43
2018-04-25T16:04:43.887Z,2.63
2018-04-25T16:07:12.398Z,3.50
2018-04-25T16:09:40.974Z,3.30
2018-04-25T16:12:09.483Z,3.00
2018-04-25T16:14:38.060Z,3.07
2018-04-25T16:17:06.508Z,3.70
2018-04-25T16:19:34.963Z,3.60
2018-04-25T16:22:04.176Z,3.70
2018-04-25T16:24:33.379Z,3.60
2018-04-25T16:27:02.147Z,4.60
2018-04-25T16:29:31.373Z,3.33
2018-04-25T16:32:00.110Z,3.20
2018-04-25T16:34:28.825Z,3.00
2018-04-25T16:36:58.111Z,3.20
2018-04-25T16:39:26.733Z,2.83
2018-04-25T16:41:55.970Z,3.72
2018-04-25T16:44:24.458Z,4.00
2018-04-25T16:46:53.786Z,3.07
2018-04-25T16:49:23.302Z,3.30
2018-04-25T16:51:52.784Z,3.62
2018-04-25T16:54:22.004Z,3.80
2018-04-25T16:56:50.446Z,3.70
2018-04-25T16:59:19.661Z,4.20
2018-04-25T17:01:48.890Z,3.30
2018-04-25T17:04:17.345Z,3.80
2018-04-25T17:06:46.638Z,3.33
2018-04-25T17:09:16.138Z,3.00
2018-04-25T17:11:44.900Z,3.90
2018-04-25T17:14:13.373Z,3.40
2018-04-25T17:16:42.007Z,3.57
2018-04-25T17:19:10.474Z,3.23
2018-04-25T17:21:39.673Z,5.00
2018-04-25T17:24:08.178Z,4.07
2018-04-25T17:26:36.621Z,3.30
2018-04-25T17:29:05.863Z,3.10
2018-04-25T17:31:34.410Z,3.50
2018-04-25T17:34:03.144Z,3.15
2018-04-25T17:36:31.601Z,3.80
2018-04-25T17:39:00.045Z,3.60
2018-04-25T17:41:29.264Z,3.20
2018-04-25T17:43:57.752Z,2.90
2018-04-25T17:46:26.440Z,4.30
2018-04-25T17:48:54.922Z,3.10
2018-04-25T17:51:23.574Z,2.70
2018-04-25T17:53:52.793Z,4.20
2018-04-25T17:56:21.505Z,5.15
2018-04-25T17:58:50.226Z,5.23
2018-04-25T18:01:18.968Z,5.30
2018-04-25T18:03:47.441Z,4.53
2018-04-25T18:06:17.052Z,4.10
2018-04-25T18:08:45.750Z,4.40
2018-04-25T18:11:16.719Z,4.17
2018-04-25T18:13:50.521Z,4.30
2018-04-25T18:16:19.004Z,4.17
2018-04-25T18:18:47.684Z,3.20
2018-04-25T18:21:16.233Z,3.47
2018-04-25T18:23:44.789Z,3.83
2018-04-25T18:26:12.935Z,2.83
2018-04-25T18:28:42.186Z,3.47
2018-04-25T18:31:10.793Z,3.03
2018-04-25T18:33:39.378Z,4.77
2018-04-25T18:36:08.627Z,3.50
2018-04-25T18:38:37.114Z,4.30
2018-04-25T18:41:05.779Z,4.30
2018-04-25T18:43:34.381Z,3.73
2018-04-25T18:46:02.834Z,3.90
2018-04-25T18:48:31.607Z,3.33
2018-04-25T18:51:00.833Z,3.53
2018-04-25T18:53:29.285Z,4.67
2018-04-25T18:55:57.781Z,6.60
2018-04-25T18:58:26.989Z,5.63
2018-04-25T19:00:56.224Z,4.77
2018-04-25T19:03:24.827Z,4.37
2018-04-25T19:05:54.296Z,4.63
2018-04-25T19:08:23.755Z,4.18
2018-04-25T19:10:53.297Z,4.87
2018-04-25T19:13:21.939Z,4.17
2018-04-25T19:15:51.138Z,3.70
2018-04-25T19:18:19.631Z,3.80
2018-04-25T19:20:48.616Z,3.70
2018-04-25T19:23:17.332Z,3.33
2018-04-25T19:25:45.826Z,3.37
2018-04-25T19:28:14.567Z,2.75
2018-04-25T19:30:43.774Z,3.55
2018-04-25T19:33:13.179Z,4.32
2018-04-25T19:35:41.619Z,3.57
2018-04-25T19:38:10.081Z,3.33
2018-04-25T19:40:38.527Z,3.60
2018-04-25T19:43:08.036Z,3.20
2018-04-25T19:45:36.793Z,2.53
2018-04-25T19:48:04.715Z,3.40
2018-04-25T19:50:33.445Z,3.70
2018-04-25T19:53:02.678Z,4.00
2018-04-25T19:55:31.429Z,3.60
2018-04-25T19:58:01.086Z,4.00
2018-04-25T20:00:29.544Z,4.03
2018-04-25T20:02:58.253Z,3.63
2018-04-25T20:05:27.649Z,4.80
2018-04-25T20:07:56.227Z,3.90
2018-04-25T20:10:24.941Z,3.47
2018-04-25T20:12:53.397Z,3.83
2018-04-25T20:15:22.044Z,3.30
2018-04-25T20:17:50.549Z,3.67
2018-04-25T20:20:18.988Z,3.60
2018-04-25T20:22:48.475Z,3.70
2018-04-25T20:25:17.196Z,4.07
2018-04-25T20:27:46.391Z,3.53
2018-04-25T20:30:14.925Z,3.73
2018-04-25T20:32:43.377Z,4.00
2018-04-25T20:35:11.977Z,3.63
2018-04-25T20:37:40.189Z,3.70
2018-04-25T20:40:08.909Z,3.70
2018-04-25T20:42:38.565Z,3.37
2018-04-25T20:45:07.125Z,3.30
2018-04-25T20:47:35.805Z,3.78
2018-04-25T20:50:04.258Z,3.90
2018-04-25T20:52:33.221Z,5.20
2018-04-25T20:55:02.429Z,4.23
2018-04-25T20:57:31.673Z,4.23
2018-04-25T21:00:00.125Z,3.93
2018-04-25T21:02:28.611Z,4.40
2018-04-25T21:04:57.188Z,4.07
2018-04-25T21:07:25.936Z,4.20
2018-04-25T21:09:55.167Z,4.47
2018-04-25T21:12:23.931Z,4.30
2018-04-25T21:14:53.152Z,3.47
2018-04-25T21:17:21.844Z,4.97
2018-04-25T21:19:50.480Z,5.70
2018-04-25T21:22:18.923Z,6.80
2018-04-25T21:24:47.319Z,5.40
2018-04-25T21:27:16.476Z,5.80
2018-04-25T21:29:45.143Z,6.03
2018-04-25T21:32:13.660Z,5.00
2018-04-25T21:34:42.103Z,5.57
2018-04-25T21:37:10.828Z,5.70
2018-04-25T21:39:39.508Z,5.50
2018-04-25T21:42:07.951Z,4.80
2018-04-25T21:44:37.169Z,5.57
2018-04-25T21:47:05.607Z,6.80
2018-04-25T21:49:34.323Z,5.83
2018-04-25T21:52:02.770Z,5.50
2018-04-25T21:54:31.265Z,4.47
2018-04-25T21:56:59.985Z,5.55
2018-04-25T21:59:28.413Z,5.10
2018-04-25T22:01:57.125Z,5.30
2018-04-25T22:04:25.717Z,5.70
2018-04-25T22:06:54.162Z,5.13
2018-04-25T22:09:23.405Z,6.40
2018-04-25T22:11:51.690Z,5.47
2018-04-25T22:14:20.238Z,5.60
2018-04-25T22:16:48.853Z,6.30
2018-04-25T22:19:17.428Z,6.30
2018-04-25T22:21:45.901Z,6.83
2018-04-25T22:24:14.590Z,5.50
2018-04-25T22:26:43.313Z,5.78
2018-04-25T22:29:11.763Z,5.67
2018-04-25T22:31:40.401Z,6.37
2018-04-25T22:34:08.497Z,6.47
2018-04-25T22:36:38.018Z,6.05
2018-04-25T22:39:07.509Z,6.00
2018-04-25T22:41:35.961Z,6.28
2018-04-25T22:44:05.181Z,5.90
2018-04-25T22:46:33.730Z,5.50
2018-04-25T22:49:02.174Z,6.30
2018-04-25T22:51:30.976Z,6.23
2018-04-25T22:53:59.767Z,6.47
2018-04-25T22:56:28.472Z,6.28
2018-04-25T22:58:56.968Z,5.60
2018-04-25T23:01:26.164Z,5.87
2018-04-25T23:03:55.386Z,6.70
2018-04-25T23:06:24.094Z,6.40
2018-04-25T23:08:53.577Z,6.67
2018-04-25T23:11:22.006Z,5.43
2018-04-25T23:13:50.728Z,6.20
2018-04-25T23:16:19.950Z,6.53
2018-04-25T23:18:48.393Z,6.17
2018-04-25T23:21:17.584Z,6.30
2018-04-25T23:23:46.244Z,6.00
2018-04-25T23:26:14.908Z,5.93
2018-04-25T23:28:44.297Z,5.77
2018-04-25T23:31:12.734Z,6.30
2018-04-25T23:33:42.268Z,5.13
2018-04-25T23:36:10.695Z,5.70
2018-04-25T23:38:39.359Z,6.77
2018-04-25T23:41:07.804Z,5.87
2018-04-25T23:43:36.238Z,6.00
2018-04-25T23:46:05.560Z,5.70
2018-04-25T23:48:34.270Z,6.57
2018-04-25T23:51:03.880Z,6.28
2018-04-25T23:53:32.318Z,5.50
2018-04-25T23:56:00.794Z,6.18
2018-04-25T23:58:29.245Z,5.67
